sensor_id;sensor_type;location;lat;lon;timestamp;pressure;altitude;pressure_sealevel;temperature;humidity
10806;BME280;5455;53.224;6.000;2023-07-22T00:01:02;101262.84;;;13.61;100.00
10806;BME280;5455;53.224;6.000;2023-07-22T00:03:29;101264.41;;;13.59;100.00
10806;BME280;5455;53.224;6.000;2023-07-22T00:06:04;101261.88;;;13.50;100.00
10806;BME280;5455;53.224;6.000;2023-07-22T00:08:34;101263.84;;;13.50;100.00
10806;BME280;5455;53.224;6.000;2023-07-22T00:11:01;101266.13;;;13.44;100.00
10806;BME280;5455;53.224;6.000;2023-07-22T00:13:28;101269.53;;;13.38;100.00
10806;BME280;5455;53.224;6.000;2023-07-22T00:15:56;101269.47;;;13.34;100.00
10806;BME280;5455;53.224;6.000;2023-07-22T00:18:26;101266.34;;;13.36;100.00
10806;BME280;5455;53.224;6.000;2023-07-22T00:20:55;101257.72;;;13.41;100.00
10806;BME280;5455;53.224;6.000;2023-07-22T00:23:23;101262.19;;;13.45;100.00
10806;BME280;5455;53.224;6.000;2023-07-22T00:25:51;101259.03;;;13.47;100.00
10806;BME280;5455;53.224;6.000;2023-07-22T00:28:19;101259.03;;;13.47;100.00
10806;BME280;5455;53.224;6.000;2023-07-22T00:30:46;101262.53;;;13.44;100.00
10806;BME280;5455;53.224;6.000;2023-07-22T00:33:16;101250.16;;;13.38;100.00
10806;BME280;5455;53.224;6.000;2023-07-22T00:35:47;101259.59;;;13.33;100.00
10806;BME280;5455;53.224;6.000;2023-07-22T00:38:17;101267.91;;;13.33;100.00
10806;BME280;5455;53.224;6.000;2023-07-22T00:40:45;101262.78;;;13.35;100.00
10806;BME280;5455;53.224;6.000;2023-07-22T00:43:13;101259.19;;;13.35;100.00
10806;BME280;5455;53.224;6.000;2023-07-22T00:45:40;101267.91;;;13.33;100.00
10806;BME280;5455;53.224;6.000;2023-07-22T00:48:08;101260.69;;;13.29;100.00
10806;BME280;5455;53.224;6.000;2023-07-22T00:50:38;101255.13;;;13.29;100.00
10806;BME280;5455;53.224;6.000;2023-07-22T00:53:05;101260.56;;;13.21;100.00
10806;BME280;5455;53.224;6.000;2023-07-22T00:55:35;101260.00;;;13.12;100.00
10806;BME280;5455;53.224;6.000;2023-07-22T00:58:03;101253.88;;;13.07;100.00
10806;BME280;5455;53.224;6.000;2023-07-22T01:00:30;101251.34;;;12.98;100.00
10806;BME280;5455;53.224;6.000;2023-07-22T01:02:59;101254.50;;;12.97;100.00
10806;BME280;5455;53.224;6.000;2023-07-22T01:05:27;101258.81;;;12.94;100.00
10806;BME280;5455;53.224;6.000;2023-07-22T01:07:55;101255.16;;;12.90;100.00
10806;BME280;5455;53.224;6.000;2023-07-22T01:10:22;101254.56;;;12.81;100.00
10806;BME280;5455;53.224;6.000;2023-07-22T01:12:49;101251.28;;;12.76;100.00
10806;BME280;5455;53.224;6.000;2023-07-22T01:15:17;101248.03;;;12.70;100.00
10806;BME280;5455;53.224;6.000;2023-07-22T01:17:45;101248.38;;;12.68;100.00
10806;BME280;5455;53.224;6.000;2023-07-22T01:20:13;101249.91;;;12.66;100.00
10806;BME280;5455;53.224;6.000;2023-07-22T01:22:42;101249.09;;;12.65;100.00
10806;BME280;5455;53.224;6.000;2023-07-22T01:25:10;101242.75;;;12.65;100.00
10806;BME280;5455;53.224;6.000;2023-07-22T01:27:38;101236.63;;;12.56;100.00
10806;BME280;5455;53.224;6.000;2023-07-22T01:30:06;101237.81;;;12.55;100.00
10806;BME280;5455;53.224;6.000;2023-07-22T01:32:36;101246.03;;;12.51;100.00
10806;BME280;5455;53.224;6.000;2023-07-22T01:35:04;101246.47;;;12.53;100.00
10806;BME280;5455;53.224;6.000;2023-07-22T01:37:32;101246.13;;;12.55;100.00
10806;BME280;5455;53.224;6.000;2023-07-22T01:39:59;101241.44;;;12.59;100.00
10806;BME280;5455;53.224;6.000;2023-07-22T01:42:26;101237.91;;;12.58;100.00
10806;BME280;5455;53.224;6.000;2023-07-22T01:44:53;101237.53;;;12.60;100.00
10806;BME280;5455;53.224;6.000;2023-07-22T01:47:21;101236.28;;;12.57;100.00
10806;BME280;5455;53.224;6.000;2023-07-22T01:49:48;101235.78;;;12.52;100.00
10806;BME280;5455;53.224;6.000;2023-07-22T01:52:15;101229.00;;;12.49;100.00
10806;BME280;5455;53.224;6.000;2023-07-22T01:54:43;101241.88;;;12.42;100.00
10806;BME280;5455;53.224;6.000;2023-07-22T01:57:10;101235.03;;;12.36;100.00
10806;BME280;5455;53.224;6.000;2023-07-22T01:59:37;101240.84;;;12.31;100.00
10806;BME280;5455;53.224;6.000;2023-07-22T02:02:04;101240.31;;;12.25;100.00
10806;BME280;5455;53.224;6.000;2023-07-22T02:04:32;101244.63;;;12.23;100.00
10806;BME280;5455;53.224;6.000;2023-07-22T02:06:59;101240.97;;;12.19;100.00
10806;BME280;5455;53.224;6.000;2023-07-22T02:09:28;101241.03;;;12.22;100.00
10806;BME280;5455;53.224;6.000;2023-07-22T02:11:55;101238.63;;;12.21;100.00
10806;BME280;5455;53.224;6.000;2023-07-22T02:14:22;101227.84;;;12.15;100.00
10806;BME280;5455;53.224;6.000;2023-07-22T02:16:49;101233.38;;;12.15;100.00
10806;BME280;5455;53.224;6.000;2023-07-22T02:19:17;101234.03;;;12.09;100.00
10806;BME280;5455;53.224;6.000;2023-07-22T02:21:44;101235.97;;;12.08;100.00
10806;BME280;5455;53.224;6.000;2023-07-22T02:24:12;101226.81;;;12.04;100.00
10806;BME280;5455;53.224;6.000;2023-07-22T02:26:41;101227.06;;;11.99;100.00
10806;BME280;5455;53.224;6.000;2023-07-22T02:29:09;101220.31;;;11.97;100.00
10806;BME280;5455;53.224;6.000;2023-07-22T02:31:36;101222.97;;;11.93;100.00
10806;BME280;5455;53.224;6.000;2023-07-22T02:34:04;101231.28;;;11.93;100.00
10806;BME280;5455;53.224;6.000;2023-07-22T02:36:31;101228.88;;;11.92;100.00
10806;BME280;5455;53.224;6.000;2023-07-22T02:38:58;101218.97;;;11.91;100.00
10806;BME280;5455;53.224;6.000;2023-07-22T02:41:26;101227.66;;;11.89;100.00
10806;BME280;5455;53.224;6.000;2023-07-22T02:43:54;101214.88;;;11.85;100.00
10806;BME280;5455;53.224;6.000;2023-07-22T02:46:21;101220.31;;;11.81;100.00
10806;BME280;5455;53.224;6.000;2023-07-22T02:48:49;101219.59;;;11.84;100.00
10806;BME280;5455;53.224;6.000;2023-07-22T02:51:16;101219.59;;;11.84;100.00
10806;BME280;5455;53.224;6.000;2023-07-22T02:53:43;101220.50;;;11.88;100.00
10806;BME280;5455;53.224;6.000;2023-07-22T02:56:14;101223.97;;;11.85;100.00
10806;BME280;5455;53.224;6.000;2023-07-22T02:58:42;101224.28;;;11.80;100.00
10806;BME280;5455;53.224;6.000;2023-07-22T03:01:09;101225.22;;;11.72;100.00
10806;BME280;5455;53.224;6.000;2023-07-22T03:03:37;101227.75;;;11.77;100.00
10806;BME280;5455;53.224;6.000;2023-07-22T03:06:07;101228.09;;;11.76;100.00
10806;BME280;5455;53.224;6.000;2023-07-22T03:08:37;101233.97;;;11.74;100.00
10806;BME280;5455;53.224;6.000;2023-07-22T03:11:04;101228.47;;;11.74;100.00
10806;BME280;5455;53.224;6.000;2023-07-22T03:13:31;101219.00;;;11.75;100.00
10806;BME280;5455;53.224;6.000;2023-07-22T03:16:00;101228.53;;;11.78;100.00
10806;BME280;5455;53.224;6.000;2023-07-22T03:18:31;101219.09;;;11.79;100.00
10806;BME280;5455;53.224;6.000;2023-07-22T03:20:59;101230.66;;;11.84;100.00
10806;BME280;5455;53.224;6.000;2023-07-22T03:23:26;101222.13;;;11.89;100.00
10806;BME280;5455;53.224;6.000;2023-07-22T03:25:53;101225.31;;;11.91;100.00
10806;BME280;5455;53.224;6.000;2023-07-22T03:28:21;101228.69;;;12.00;100.00
10806;BME280;5455;53.224;6.000;2023-07-22T03:30:48;101231.63;;;12.07;100.00
10806;BME280;5455;53.224;6.000;2023-07-22T03:33:16;101238.47;;;12.13;100.00
10806;BME280;5455;53.224;6.000;2023-07-22T03:35:43;101239.44;;;12.21;100.00
10806;BME280;5455;53.224;6.000;2023-07-22T03:38:10;101246.00;;;12.32;100.00
10806;BME280;5455;53.224;6.000;2023-07-22T03:40:37;101241.53;;;12.43;100.00
10806;BME280;5455;53.224;6.000;2023-07-22T03:43:05;101243.63;;;12.50;100.00
10806;BME280;5455;53.224;6.000;2023-07-22T03:45:32;101233.34;;;12.50;100.00
10806;BME280;5455;53.224;6.000;2023-07-22T03:48:00;101238.91;;;12.69;100.00
10806;BME280;5455;53.224;6.000;2023-07-22T03:50:28;101221.22;;;12.74;100.00
10806;BME280;5455;53.224;6.000;2023-07-22T03:52:55;101223.78;;;12.83;100.00
10806;BME280;5455;53.224;6.000;2023-07-22T03:55:23;101226.16;;;12.84;100.00
10806;BME280;5455;53.224;6.000;2023-07-22T03:57:50;101227.03;;;12.88;100.00
10806;BME280;5455;53.224;6.000;2023-07-22T04:00:20;101226.38;;;12.95;100.00
10806;BME280;5455;53.224;6.000;2023-07-22T04:02:48;101222.94;;;13.01;100.00
10806;BME280;5455;53.224;6.000;2023-07-22T04:05:15;101223.44;;;13.07;100.00
10806;BME280;5455;53.224;6.000;2023-07-22T04:07:42;101232.66;;;13.11;100.00
10806;BME280;5455;53.224;6.000;2023-07-22T04:10:12;101233.06;;;13.13;100.00
10806;BME280;5455;53.224;6.000;2023-07-22T04:12:39;101232.72;;;13.14;100.00
10806;BME280;5455;53.224;6.000;2023-07-22T04:15:08;101230.44;;;13.20;100.00
10806;BME280;5455;53.224;6.000;2023-07-22T04:17:36;101226.59;;;13.24;100.00
10806;BME280;5455;53.224;6.000;2023-07-22T04:20:03;101226.94;;;13.23;100.00
10806;BME280;5455;53.224;6.000;2023-07-22T04:22:32;101224.25;;;13.27;100.00
10806;BME280;5455;53.224;6.000;2023-07-22T04:24:59;101229.94;;;13.34;100.00
10806;BME280;5455;53.224;6.000;2023-07-22T04:27:27;101234.78;;;13.40;100.00
10806;BME280;5455;53.224;6.000;2023-07-22T04:29:55;101233.25;;;13.43;100.00
10806;BME280;5455;53.224;6.000;2023-07-22T04:32:23;101238.09;;;13.49;100.00
10806;BME280;5455;53.224;6.000;2023-07-22T04:34:50;101234.31;;;13.57;100.00
10806;BME280;5455;53.224;6.000;2023-07-22T04:37:17;101234.41;;;13.64;100.00
10806;BME280;5455;53.224;6.000;2023-07-22T04:39:48;101233.38;;;13.72;100.00
10806;BME280;5455;53.224;6.000;2023-07-22T04:42:16;101233.94;;;13.85;100.00
10806;BME280;5455;53.224;6.000;2023-07-22T04:44:43;101226.56;;;13.93;100.00
10806;BME280;5455;53.224;6.000;2023-07-22T04:47:11;101234.53;;;13.98;100.00
10806;BME280;5455;53.224;6.000;2023-07-22T04:49:39;101227.56;;;14.07;100.00
10806;BME280;5455;53.224;6.000;2023-07-22T04:52:07;101231.75;;;14.20;100.00
10806;BME280;5455;53.224;6.000;2023-07-22T04:54:35;101230.25;;;14.26;100.00
10806;BME280;5455;53.224;6.000;2023-07-22T04:57:03;101239.94;;;14.40;100.00
10806;BME280;5455;53.224;6.000;2023-07-22T04:59:30;101227.34;;;14.46;100.00
10806;BME280;5455;53.224;6.000;2023-07-22T05:01:58;101230.13;;;14.46;100.00
10806;BME280;5455;53.224;6.000;2023-07-22T05:04:25;101229.84;;;14.54;100.00
10806;BME280;5455;53.224;6.000;2023-07-22T05:06:54;101229.56;;;14.63;100.00
10806;BME280;5455;53.224;6.000;2023-07-22T05:09:22;101231.66;;;14.73;100.00
10806;BME280;5455;53.224;6.000;2023-07-22T05:11:49;101235.75;;;14.82;100.00
10806;BME280;5455;53.224;6.000;2023-07-22T05:14:17;101229.88;;;14.87;100.00
10806;BME280;5455;53.224;6.000;2023-07-22T05:16:44;101229.53;;;14.93;100.00
10806;BME280;5455;53.224;6.000;2023-07-22T05:19:11;101231.56;;;14.99;100.00
10806;BME280;5455;53.224;6.000;2023-07-22T05:21:38;101229.69;;;15.07;100.00
10806;BME280;5455;53.224;6.000;2023-07-22T05:24:05;101230.94;;;15.13;100.00
10806;BME280;5455;53.224;6.000;2023-07-22T05:26:32;101236.56;;;15.16;100.00
10806;BME280;5455;53.224;6.000;2023-07-22T05:28:59;101234.19;;;15.18;100.00
10806;BME280;5455;53.224;6.000;2023-07-22T05:31:27;101227.88;;;15.21;100.00
10806;BME280;5455;53.224;6.000;2023-07-22T05:33:55;101233.06;;;15.26;100.00
10806;BME280;5455;53.224;6.000;2023-07-22T05:36:23;101238.34;;;15.38;100.00
10806;BME280;5455;53.224;6.000;2023-07-22T05:38:51;101234.31;;;15.32;100.00
10806;BME280;5455;53.224;6.000;2023-07-22T05:41:19;101236.00;;;15.40;100.00
10806;BME280;5455;53.224;6.000;2023-07-22T05:43:46;101237.63;;;15.45;100.00
10806;BME280;5455;53.224;6.000;2023-07-22T05:46:14;101234.63;;;15.61;100.00
10806;BME280;5455;53.224;6.000;2023-07-22T05:48:41;101231.97;;;15.75;100.00
10806;BME280;5455;53.224;6.000;2023-07-22T05:51:09;101238.50;;;15.96;100.00
10806;BME280;5455;53.224;6.000;2023-07-22T05:53:37;101240.06;;;15.94;100.00
10806;BME280;5455;53.224;6.000;2023-07-22T05:56:04;101239.72;;;15.99;100.00
10806;BME280;5455;53.224;6.000;2023-07-22T05:58:31;101232.97;;;16.00;100.00
10806;BME280;5455;53.224;6.000;2023-07-22T06:00:58;101238.94;;;16.02;100.00
10806;BME280;5455;53.224;6.000;2023-07-22T06:03:26;101239.75;;;16.06;100.00
10806;BME280;5455;53.224;6.000;2023-07-22T06:05:53;101238.25;;;16.19;100.00
10806;BME280;5455;53.224;6.000;2023-07-22T06:08:21;101234.34;;;16.27;100.00
10806;BME280;5455;53.224;6.000;2023-07-22T06:10:48;101237.56;;;16.33;100.00
10806;BME280;5455;53.224;6.000;2023-07-22T06:13:15;101234.78;;;16.36;100.00
10806;BME280;5455;53.224;6.000;2023-07-22T06:15:43;101229.78;;;16.60;100.00
10806;BME280;5455;53.224;6.000;2023-07-22T06:18:10;101223.06;;;16.75;100.00
10806;BME280;5455;53.224;6.000;2023-07-22T06:20:37;101231.13;;;17.01;100.00
10806;BME280;5455;53.224;6.000;2023-07-22T06:23:05;101233.16;;;17.15;100.00
10806;BME280;5455;53.224;6.000;2023-07-22T06:25:32;101236.75;;;17.15;100.00
10806;BME280;5455;53.224;6.000;2023-07-22T06:28:00;101233.16;;;17.15;100.00
10806;BME280;5455;53.224;6.000;2023-07-22T06:30:28;101230.78;;;17.17;100.00
10806;BME280;5455;53.224;6.000;2023-07-22T06:32:55;101235.53;;;17.16;100.00
10806;BME280;5455;53.224;6.000;2023-07-22T06:35:23;101237.59;;;17.30;100.00
10806;BME280;5455;53.224;6.000;2023-07-22T06:37:50;101242.75;;;17.45;100.00
10806;BME280;5455;53.224;6.000;2023-07-22T06:40:18;101236.44;;;17.59;100.00
10806;BME280;5455;53.224;6.000;2023-07-22T06:42:45;101227.28;;;17.76;100.00
10806;BME280;5455;53.224;6.000;2023-07-22T06:45:12;101233.28;;;17.92;100.00
10806;BME280;5455;53.224;6.000;2023-07-22T06:47:39;101234.84;;;17.97;100.00
10806;BME280;5455;53.224;6.000;2023-07-22T06:50:06;101226.09;;;17.98;100.00
10806;BME280;5455;53.224;6.000;2023-07-22T06:52:34;101228.06;;;17.94;100.00
10806;BME280;5455;53.224;6.000;2023-07-22T06:55:01;101230.47;;;17.92;100.00
10806;BME280;5455;53.224;6.000;2023-07-22T06:57:29;101230.09;;;17.87;100.00
10806;BME280;5455;53.224;6.000;2023-07-22T06:59:56;101218.53;;;17.71;100.00
10806;BME280;5455;53.224;6.000;2023-07-22T07:02:24;101232.06;;;17.61;100.00
10806;BME280;5455;53.224;6.000;2023-07-22T07:04:51;101228.03;;;17.48;100.00
10806;BME280;5455;53.224;6.000;2023-07-22T07:07:18;101236.84;;;17.57;100.00
10806;BME280;5455;53.224;6.000;2023-07-22T07:09:45;101234.06;;;17.75;100.00
10806;BME280;5455;53.224;6.000;2023-07-22T07:12:12;101238.06;;;17.99;100.00
10806;BME280;5455;53.224;6.000;2023-07-22T07:14:39;101232.81;;;18.29;100.00
10806;BME280;5455;53.224;6.000;2023-07-22T07:17:06;101240.38;;;18.36;100.00
10806;BME280;5455;53.224;6.000;2023-07-22T07:19:33;101240.41;;;18.29;100.00
10806;BME280;5455;53.224;6.000;2023-07-22T07:22:01;101236.00;;;18.31;100.00
10806;BME280;5455;53.224;6.000;2023-07-22T07:24:28;101244.38;;;18.38;100.00
10806;BME280;5455;53.224;6.000;2023-07-22T07:26:55;101236.84;;;18.10;100.00
10806;BME280;5455;53.224;6.000;2023-07-22T07:29:23;101234.06;;;17.93;100.00
10806;BME280;5455;53.224;6.000;2023-07-22T07:32:10;101237.25;;;17.98;100.00
10806;BME280;5455;53.224;6.000;2023-07-22T07:34:38;101240.41;;;18.14;100.00
10806;BME280;5455;53.224;6.000;2023-07-22T07:37:05;101229.25;;;18.18;100.00
10806;BME280;5455;53.224;6.000;2023-07-22T07:39:33;101219.63;;;18.44;100.00
10806;BME280;5455;53.224;6.000;2023-07-22T07:42:01;101234.66;;;18.78;100.00
10806;BME280;5455;53.224;6.000;2023-07-22T07:44:28;101229.91;;;18.75;100.00
10806;BME280;5455;53.224;6.000;2023-07-22T07:46:56;101224.28;;;18.82;100.00
10806;BME280;5455;53.224;6.000;2023-07-22T07:49:23;101227.44;;;18.95;100.00
10806;BME280;5455;53.224;6.000;2023-07-22T07:51:51;101228.13;;;19.13;100.00
10806;BME280;5455;53.224;6.000;2023-07-22T07:54:18;101229.63;;;19.32;100.00
10806;BME280;5455;53.224;6.000;2023-07-22T07:56:45;101234.97;;;19.67;100.00
10806;BME280;5455;53.224;6.000;2023-07-22T07:59:12;101234.84;;;19.85;100.00
10806;BME280;5455;53.224;6.000;2023-07-22T08:01:39;101241.91;;;20.00;100.00
10806;BME280;5455;53.224;6.000;2023-07-22T08:04:09;101227.44;;;20.05;100.00
10806;BME280;5455;53.224;6.000;2023-07-22T08:06:36;101216.25;;;20.05;100.00
10806;BME280;5455;53.224;6.000;2023-07-22T08:09:04;101228.72;;;19.97;100.00
10806;BME280;5455;53.224;6.000;2023-07-22T08:11:37;101228.25;;;20.05;100.00
10806;BME280;5455;53.224;6.000;2023-07-22T08:14:05;101219.53;;;19.96;100.00
10806;BME280;5455;53.224;6.000;2023-07-22T08:16:32;101228.72;;;19.97;100.00
10806;BME280;5455;53.224;6.000;2023-07-22T08:19:00;101229.75;;;19.69;100.00
10806;BME280;5455;53.224;6.000;2023-07-22T08:21:28;101228.63;;;19.59;100.00
10806;BME280;5455;53.224;6.000;2023-07-22T08:23:55;101225.91;;;19.52;100.00
10806;BME280;5455;53.224;6.000;2023-07-22T08:26:22;101223.25;;;19.24;100.00
10806;BME280;5455;53.224;6.000;2023-07-22T08:28:49;101220.66;;;18.92;100.00
10806;BME280;5455;53.224;6.000;2023-07-22T08:31:16;101213.97;;;18.68;100.00
10806;BME280;5455;53.224;6.000;2023-07-22T08:33:43;101216.34;;;18.70;100.00
10806;BME280;5455;53.224;6.000;2023-07-22T08:36:11;101216.78;;;18.68;100.00
10806;BME280;5455;53.224;6.000;2023-07-22T08:38:38;101217.47;;;18.87;100.00
10806;BME280;5455;53.224;6.000;2023-07-22T08:41:06;101210.56;;;19.09;100.00
10806;BME280;5455;53.224;6.000;2023-07-22T08:43:34;101224.41;;;19.34;100.00
10806;BME280;5455;53.224;6.000;2023-07-22T08:46:07;101226.69;;;19.53;100.00
10806;BME280;5455;53.224;6.000;2023-07-22T08:48:36;101227.09;;;19.55;100.00
10806;BME280;5455;53.224;6.000;2023-07-22T08:51:13;101231.56;;;19.42;100.00
10806;BME280;5455;53.224;6.000;2023-07-22T08:53:47;101221.16;;;19.46;100.00
10806;BME280;5455;53.224;6.000;2023-07-22T08:56:34;101217.88;;;19.58;100.00
10806;BME280;5455;53.224;6.000;2023-07-22T08:59:02;101219.00;;;19.67;100.00
10806;BME280;5455;53.224;6.000;2023-07-22T09:01:33;101219.66;;;19.82;100.00
10806;BME280;5455;53.224;6.000;2023-07-22T09:04:01;101217.28;;;19.80;100.00
10806;BME280;5455;53.224;6.000;2023-07-22T09:06:29;101220.25;;;19.56;100.00
10806;BME280;5455;53.224;6.000;2023-07-22T09:08:57;101215.03;;;19.61;100.00
10806;BME280;5455;53.224;6.000;2023-07-22T09:11:26;101221.78;;;19.67;100.00
10806;BME280;5455;53.224;6.000;2023-07-22T09:13:54;101232.34;;;19.46;100.00
10806;BME280;5455;53.224;6.000;2023-07-22T09:16:21;101230.63;;;18.93;100.00
10806;BME280;5455;53.224;6.000;2023-07-22T09:18:49;101226.81;;;18.41;100.00
10806;BME280;5455;53.224;6.000;2023-07-22T09:21:16;101211.72;;;18.14;100.00
10806;BME280;5455;53.224;6.000;2023-07-22T09:23:43;101208.16;;;17.89;100.00
10806;BME280;5455;53.224;6.000;2023-07-22T09:26:15;101204.59;;;17.74;100.00
10806;BME280;5455;53.224;6.000;2023-07-22T09:28:49;101213.34;;;17.66;100.00
10806;BME280;5455;53.224;6.000;2023-07-22T09:31:17;101218.91;;;17.55;100.00
10806;BME280;5455;53.224;6.000;2023-07-22T09:33:45;101213.31;;;17.94;100.00
10806;BME280;5455;53.224;6.000;2023-07-22T09:36:12;101209.38;;;17.77;100.00
10806;BME280;5455;53.224;6.000;2023-07-22T09:38:39;101201.38;;;17.61;100.00
10806;BME280;5455;53.224;6.000;2023-07-22T09:41:07;101195.03;;;17.75;100.00
10806;BME280;5455;53.224;6.000;2023-07-22T09:43:37;101197.81;;;17.72;100.00
10806;BME280;5455;53.224;6.000;2023-07-22T09:46:09;101190.63;;;17.71;100.00
10806;BME280;5455;53.224;6.000;2023-07-22T09:48:40;101195.41;;;17.67;100.00
10806;BME280;5455;53.224;6.000;2023-07-22T09:51:15;101190.22;;;17.58;100.00
10806;BME280;5455;53.224;6.000;2023-07-22T09:53:47;101212.56;;;17.65;100.00
10806;BME280;5455;53.224;6.000;2023-07-22T09:56:15;101212.13;;;17.67;100.00
10806;BME280;5455;53.224;6.000;2023-07-22T09:58:43;101224.50;;;17.55;100.00
10806;BME280;5455;53.224;6.000;2023-07-22T10:01:15;101216.53;;;17.60;100.00
10806;BME280;5455;53.224;6.000;2023-07-22T10:03:45;101213.34;;;17.66;100.00
10806;BME280;5455;53.224;6.000;2023-07-22T10:06:14;101218.53;;;17.74;100.00
10806;BME280;5455;53.224;6.000;2023-07-22T10:08:43;101224.50;;;17.87;100.00
10806;BME280;5455;53.224;6.000;2023-07-22T10:11:13;101224.47;;;18.18;100.00
10806;BME280;5455;53.224;6.000;2023-07-22T10:13:41;101228.81;;;18.37;100.00
10806;BME280;5455;53.224;6.000;2023-07-22T10:16:08;101230.38;;;18.59;100.00
10806;BME280;5455;53.224;6.000;2023-07-22T10:18:36;101229.97;;;18.57;100.00
10806;BME280;5455;53.224;6.000;2023-07-22T10:21:04;101226.81;;;18.31;100.00
10806;BME280;5455;53.224;6.000;2023-07-22T10:23:32;101227.28;;;17.94;100.00
10806;BME280;5455;53.224;6.000;2023-07-22T10:26:00;101228.88;;;17.77;100.00
10806;BME280;5455;53.224;6.000;2023-07-22T10:28:28;101232.88;;;17.62;100.00
10806;BME280;5455;53.224;6.000;2023-07-22T10:30:55;101226.03;;;17.45;100.00
10806;BME280;5455;53.224;6.000;2023-07-22T10:33:25;101226.06;;;17.42;100.00
10806;BME280;5455;53.224;6.000;2023-07-22T10:36:07;101227.25;;;17.51;100.00
10806;BME280;5455;53.224;6.000;2023-07-22T10:38:35;101221.31;;;17.67;100.00
10806;BME280;5455;53.224;6.000;2023-07-22T10:41:14;101218.13;;;17.90;100.00
10806;BME280;5455;53.224;6.000;2023-07-22T10:43:58;101225.63;;;18.25;100.00
10806;BME280;5455;53.224;6.000;2023-07-22T10:46:37;101232.78;;;18.43;100.00
10806;BME280;5455;53.224;6.000;2023-07-22T10:51:50;101221.25;;;18.24;100.00
10806;BME280;5455;53.224;6.000;2023-07-22T10:54:39;101224.06;;;18.13;100.00
10806;BME280;5455;53.224;6.000;2023-07-22T10:57:26;101220.53;;;17.77;100.00
10806;BME280;5455;53.224;6.000;2023-07-22T10:59:55;101213.34;;;17.66;100.00
10806;BME280;5455;53.224;6.000;2023-07-22T11:02:26;101217.34;;;17.72;100.00
10806;BME280;5455;53.224;6.000;2023-07-22T11:05:02;101207.78;;;17.90;100.00
10806;BME280;5455;53.224;6.000;2023-07-22T11:07:32;101211.31;;;18.12;100.00
10806;BME280;5455;53.224;6.000;2023-07-22T11:10:13;101207.34;;;17.99;100.00
10806;BME280;5455;53.224;6.000;2023-07-22T11:12:42;101209.31;;;18.12;100.00
10806;BME280;5455;53.224;6.000;2023-07-22T11:15:15;101210.50;;;18.11;100.00
10806;BME280;5455;53.224;6.000;2023-07-22T11:17:42;101208.94;;;18.00;100.00
10806;BME280;5455;53.224;6.000;2023-07-22T11:20:10;101210.16;;;17.95;100.00
10806;BME280;5455;53.224;6.000;2023-07-22T11:22:41;101215.72;;;17.67;100.00
10806;BME280;5455;53.224;6.000;2023-07-22T11:25:09;101218.09;;;17.51;100.00
10806;BME280;5455;53.224;6.000;2023-07-22T11:27:37;101213.69;;;17.46;100.00
10806;BME280;5455;53.224;6.000;2023-07-22T11:30:04;101194.56;;;17.31;100.00
10806;BME280;5455;53.224;6.000;2023-07-22T11:32:32;101195.38;;;17.35;100.00
10806;BME280;5455;53.224;6.000;2023-07-22T11:35:00;101196.59;;;17.48;100.00
10806;BME280;5455;53.224;6.000;2023-07-22T11:37:28;101200.19;;;17.70;100.00
10806;BME280;5455;53.224;6.000;2023-07-22T11:40:03;101194.59;;;17.91;100.00
10806;BME280;5455;53.224;6.000;2023-07-22T11:42:34;101190.16;;;18.22;100.00
10806;BME280;5455;53.224;6.000;2023-07-22T11:45:02;101201.31;;;18.32;100.00
10806;BME280;5455;53.224;6.000;2023-07-22T11:47:30;101194.13;;;18.31;100.00
10806;BME280;5455;53.224;6.000;2023-07-22T11:50:00;101187.78;;;18.20;100.00
10806;BME280;5455;53.224;6.000;2023-07-22T11:52:28;101201.31;;;18.29;100.00
10806;BME280;5455;53.224;6.000;2023-07-22T11:55:01;101196.47;;;18.43;100.00
10806;BME280;5455;53.224;6.000;2023-07-22T11:57:29;101192.09;;;18.42;100.00
10806;BME280;5455;53.224;6.000;2023-07-22T11:59:57;101183.66;;;18.60;100.00
10806;BME280;5455;53.224;6.000;2023-07-22T12:02:26;101174.91;;;18.58;100.00
10806;BME280;5455;53.224;6.000;2023-07-22T12:05:03;101176.88;;;18.68;100.00
10806;BME280;5455;53.224;6.000;2023-07-22T12:07:35;101174.00;;;18.75;100.00
10806;BME280;5455;53.224;6.000;2023-07-22T12:10:06;101169.91;;;19.01;100.00
10806;BME280;5455;53.224;6.000;2023-07-22T12:12:39;101176.06;;;19.33;100.00
10806;BME280;5455;53.224;6.000;2023-07-22T12:15:20;101171.81;;;19.66;100.00
10806;BME280;5455;53.224;6.000;2023-07-22T12:17:55;101170.66;;;20.04;100.00
10806;BME280;5455;53.224;6.000;2023-07-22T12:20:28;101162.31;;;20.38;100.00
10806;BME280;5455;53.224;6.000;2023-07-22T12:22:57;101165.66;;;20.60;100.00
10806;BME280;5455;53.224;6.000;2023-07-22T12:25:25;101171.47;;;20.42;100.00
10806;BME280;5455;53.224;6.000;2023-07-22T12:27:53;101169.03;;;20.44;100.00
10806;BME280;5455;53.224;6.000;2023-07-22T12:30:20;101170.28;;;20.70;100.00
10806;BME280;5455;53.224;6.000;2023-07-22T12:32:48;101163.44;;;20.74;100.00
10806;BME280;5455;53.224;6.000;2023-07-22T12:35:15;101168.16;;;20.81;100.00
10806;BME280;5455;53.224;6.000;2023-07-22T12:37:43;101161.13;;;20.69;100.00
10806;BME280;5455;53.224;6.000;2023-07-22T12:40:11;101161.13;;;20.69;100.00
10806;BME280;5455;53.224;6.000;2023-07-22T12:42:40;101159.72;;;20.54;100.00
10806;BME280;5455;53.224;6.000;2023-07-22T12:45:08;101153.88;;;20.42;100.00
10806;BME280;5455;53.224;6.000;2023-07-22T12:47:36;101140.34;;;19.96;100.00
10806;BME280;5455;53.224;6.000;2023-07-22T12:50:05;101146.47;;;19.84;100.00
10806;BME280;5455;53.224;6.000;2023-07-22T12:52:35;101143.16;;;19.55;100.00
10806;BME280;5455;53.224;6.000;2023-07-22T12:55:02;101139.25;;;19.42;100.00
10806;BME280;5455;53.224;6.000;2023-07-22T12:57:30;101140.50;;;19.34;100.00
10806;BME280;5455;53.224;6.000;2023-07-22T12:59:57;101130.69;;;19.11;100.00